Time;durP1;ratioP1;P1;durP2;ratioP2;P2;SDS_P1;SDS_P2;PMS_P1;PMS_P2;Temp;Humidity;BMP_temperature;BMP_pressure;BME280_temperature;BME280_humidity;BME280_pressure;Samples;Min_cycle;Max_cycle;Signal;HPM_P1;HPM_P2
2023/03/03 00:00:53;;;;;;;196.37;21.63;;;0.80;99.90;;;;;;5009900;28;20046;-78
2023/03/03 00:03:22;;;;;;;178.40;20.97;;;0.30;99.90;;;;;;5026266;28;20110;-78
2023/03/03 00:05:48;;;;;;;267.83;23.23;;;0.20;99.90;;;;;;5011400;28;20126;-78
2023/03/03 00:08:14;;;;;;;550.63;38.63;;;0.20;99.90;;;;;;5013157;28;20053;-78
2023/03/03 00:10:40;;;;;;;686.23;46.17;;;0.10;99.90;;;;;;5029728;28;20128;-78
2023/03/03 00:13:18;;;;;;;420.67;30.80;;;0.30;99.90;;;;;;5027127;28;20627;-78
2023/03/03 00:15:44;;;;;;;355.30;27.67;;;0.40;99.90;;;;;;5028222;28;20037;-78
2023/03/03 00:18:17;;;;;;;208.23;22.20;;;0.00;99.90;;;;;;5017183;28;20110;-78
2023/03/03 00:20:59;;;;;;;210.77;21.30;;;0.10;99.90;;;;;;5032781;28;20054;-78
2023/03/03 00:23:30;;;;;;;120.00;18.40;;;0.00;99.90;;;;;;5031368;28;20483;-79
2023/03/03 00:25:57;;;;;;;105.55;13.88;;;0.00;99.90;;;;;;5032721;28;20050;-79
2023/03/03 00:28:24;;;;;;;78.30;16.23;;;0.00;99.90;;;;;;5016775;28;20060;-78
2023/03/03 00:30:52;;;;;;;109.13;18.63;;;-0.10;99.90;;;;;;5033289;28;20610;-78
2023/03/03 00:33:33;;;;;;;179.63;20.40;;;-0.20;99.90;;;;;;5031621;28;20571;-78
2023/03/03 00:36:15;;;;;;;155.45;17.38;;;-0.20;99.90;;;;;;5032547;28;20045;-78
2023/03/03 00:38:46;;;;;;;97.80;18.77;;;-0.10;99.90;;;;;;5028248;28;20069;-78
2023/03/03 00:41:19;;;;;;;;;;;-0.30;99.90;;;;;;5016213;28;20132;-78
2023/03/03 00:43:44;;;;;;;116.27;17.70;;;-0.30;99.90;;;;;;5032252;28;19921;-78
2023/03/03 00:46:16;;;;;;;144.47;19.93;;;-0.50;99.90;;;;;;5024154;28;20075;-78
2023/03/03 00:48:42;;;;;;;;;;;-0.30;99.90;;;;;;5016434;28;20049;-78
2023/03/03 00:51:25;;;;;;;128.97;17.03;;;-0.40;99.90;;;;;;5053568;28;19927;-78
2023/03/03 00:53:51;;;;;;;189.43;18.63;;;-0.50;99.90;;;;;;5011500;28;20046;-77
2023/03/03 00:56:17;;;;;;;246.30;19.83;;;-0.50;99.90;;;;;;5002139;28;20428;-78
2023/03/03 00:58:46;;;;;;;591.63;38.57;;;-0.50;99.90;;;;;;5007758;28;20053;-78
2023/03/03 01:01:13;;;;;;;532.63;36.03;;;-0.70;99.90;;;;;;5014446;28;20046;-78
2023/03/03 01:03:39;;;;;;;507.97;33.77;;;-0.60;99.90;;;;;;5032122;28;20067;-78
2023/03/03 01:06:06;;;;;;;285.80;23.33;;;-0.70;99.90;;;;;;5029147;28;20563;-79
2023/03/03 01:08:31;;;;;;;382.73;28.67;;;-0.50;99.90;;;;;;5019529;28;20041;-78
2023/03/03 01:11:03;;;;;;;448.77;34.37;;;-0.80;99.90;;;;;;5031368;28;20091;-78
2023/03/03 01:13:34;;;;;;;575.47;42.72;;;-0.90;99.90;;;;;;5030933;28;20049;-78
2023/03/03 01:16:02;;;;;;;444.77;34.07;;;-0.20;99.90;;;;;;5048270;28;20110;-78
2023/03/03 01:18:29;;;;;;;283.67;25.43;;;-0.90;99.90;;;;;;5016420;28;20053;-78
2023/03/03 01:20:54;;;;;;;343.27;29.37;;;-1.10;99.90;;;;;;5031740;28;20116;-78
2023/03/03 01:23:20;;;;;;;69.30;15.87;;;-1.20;99.90;;;;;;5031673;28;20129;-78
2023/03/03 01:25:46;;;;;;;76.53;17.53;;;-1.20;99.90;;;;;;5032095;28;20046;-78
2023/03/03 01:28:12;;;;;;;140.70;20.33;;;-1.20;99.90;;;;;;5016109;28;20480;-78
2023/03/03 01:30:37;;;;;;;75.00;18.67;;;-1.20;99.90;;;;;;5032009;28;20105;-78
2023/03/03 01:33:03;;;;;;;50.40;17.30;;;-1.20;99.90;;;;;;5031315;28;20075;-78
2023/03/03 01:35:29;;;;;;;49.70;19.17;;;-1.30;99.90;;;;;;5032193;28;20103;-78
2023/03/03 01:37:55;;;;;;;45.10;18.10;;;-1.30;99.90;;;;;;5016254;28;20558;-78
2023/03/03 01:40:24;;;;;;;42.93;17.57;;;-1.30;99.90;;;;;;5031906;28;20053;-78
2023/03/03 01:42:51;;;;;;;32.23;17.53;;;-1.40;99.90;;;;;;5031141;28;20539;-78
2023/03/03 01:45:38;;;;;;;31.73;16.27;;;-1.40;99.90;;;;;;5030292;28;20053;-78
2023/03/03 01:48:09;;;;;;;27.17;16.07;;;-1.60;99.90;;;;;;5015159;28;20500;-78
2023/03/03 01:50:44;;;;;;;25.00;14.57;;;-1.40;99.90;;;;;;5024594;28;20158;-78
2023/03/03 01:53:18;;;;;;;27.50;15.17;;;-1.50;99.90;;;;;;5011627;28;20053;-78
2023/03/03 01:55:45;;;;;;;27.77;16.03;;;-1.60;99.90;;;;;;5011147;28;20050;-77
2023/03/03 01:58:31;;;;;;;26.37;15.27;;;-1.60;99.90;;;;;;4977019;28;20439;-78
2023/03/03 02:01:01;;;;;;;31.43;16.57;;;-1.50;99.90;;;;;;5011405;28;20119;-78
2023/03/03 02:03:27;;;;;;;30.10;16.33;;;-1.70;99.90;;;;;;5030813;28;20052;-78
2023/03/03 02:05:56;;;;;;;28.83;15.77;;;-1.80;99.90;;;;;;5030635;28;20053;-77
2023/03/03 02:08:33;;;;;;;28.63;16.43;;;-1.80;99.90;;;;;;5012291;28;20403;-77
2023/03/03 02:11:00;;;;;;;26.23;15.23;;;-1.80;99.90;;;;;;5030312;28;20037;-78
2023/03/03 02:13:25;;;;;;;24.57;15.13;;;-1.80;99.90;;;;;;5062943;28;20085;-78
2023/03/03 02:15:51;;;;;;;27.53;18.20;;;-1.80;99.90;;;;;;5030241;28;20089;-78
2023/03/03 02:18:19;;;;;;;25.53;16.30;;;-1.70;99.90;;;;;;5018841;28;20133;-77
2023/03/03 02:21:01;;;;;;;26.63;16.53;;;-1.80;99.90;;;;;;5013536;28;20706;-78
2023/03/03 02:23:38;;;;;;;25.27;15.97;;;-1.80;99.90;;;;;;5030795;28;20041;-77
2023/03/03 02:26:25;;;;;;;26.50;16.27;;;-1.90;99.90;;;;;;5031039;28;20049;-78
2023/03/03 02:28:51;;;;;;;24.60;15.73;;;-1.90;99.90;;;;;;5026827;28;20053;-78
2023/03/03 02:31:21;;;;;;;23.03;14.77;;;-1.70;99.90;;;;;;5030569;28;20068;-78
2023/03/03 02:33:48;;;;;;;24.97;15.47;;;-2.00;99.90;;;;;;5030096;28;20518;-77
2023/03/03 02:36:20;;;;;;;26.03;15.40;;;-1.90;99.90;;;;;;5021157;28;20096;-78
2023/03/03 02:39:03;;;;;;;25.60;15.77;;;-1.90;99.90;;;;;;5043089;28;20080;-77
2023/03/03 02:42:02;;;;;;;27.40;15.73;;;-2.00;99.90;;;;;;5014251;28;20156;-78
2023/03/03 02:44:30;;;;;;;23.17;14.73;;;-2.00;99.90;;;;;;5029900;28;20549;-78
2023/03/03 02:46:57;;;;;;;24.80;15.97;;;-1.90;99.90;;;;;;5015659;28;20049;-78
2023/03/03 02:49:27;;;;;;;27.30;17.00;;;-2.00;99.90;;;;;;5027786;28;20046;-78
2023/03/03 02:51:53;;;;;;;25.77;14.90;;;-1.90;99.90;;;;;;5011587;28;20050;-77
2023/03/03 02:54:22;;;;;;;22.93;15.30;;;-1.90;99.90;;;;;;5010335;28;20068;-77
2023/03/03 02:56:48;;;;;;;25.30;15.60;;;-2.00;99.90;;;;;;4995716;28;20077;-78
2023/03/03 02:59:14;;;;;;;26.07;16.23;;;-1.90;99.90;;;;;;5008621;28;20408;-77
2023/03/03 03:01:40;;;;;;;24.67;15.43;;;-1.90;99.90;;;;;;5014854;28;20114;-78
2023/03/03 03:04:11;;;;;;;25.47;16.30;;;-1.80;99.90;;;;;;5029660;28;20057;-78
2023/03/03 03:06:37;;;;;;;18.73;12.18;;;-1.80;99.90;;;;;;5016441;28;20045;-78
2023/03/03 03:09:05;;;;;;;27.63;16.03;;;-1.90;99.90;;;;;;5026676;28;20426;-78
2023/03/03 03:11:30;;;;;;;26.83;16.30;;;-1.90;99.90;;;;;;5030081;28;20041;-77
2023/03/03 03:13:56;;;;;;;28.07;16.57;;;-1.90;99.90;;;;;;5028826;28;20060;-77
2023/03/03 03:16:22;;;;;;;30.70;17.17;;;-1.80;99.90;;;;;;5017009;28;20056;-77
2023/03/03 03:18:49;;;;;;;30.00;17.47;;;-1.90;99.90;;;;;;5026549;28;20045;-78
2023/03/03 03:21:15;;;;;;;26.40;16.93;;;-1.90;99.90;;;;;;5030335;28;20050;-77
2023/03/03 03:23:41;;;;;;;26.30;16.97;;;-1.90;99.90;;;;;;5029285;28;20061;-77
2023/03/03 03:26:07;;;;;;;29.17;16.97;;;-1.90;99.90;;;;;;5022943;28;20045;-79
2023/03/03 03:28:34;;;;;;;27.00;16.80;;;-1.80;99.90;;;;;;5001464;28;20628;-77
2023/03/03 03:30:59;;;;;;;27.13;17.23;;;-1.90;99.90;;;;;;5029093;28;20495;-78
2023/03/03 03:33:27;;;;;;;29.60;17.10;;;-1.90;99.90;;;;;;5028904;28;20080;-77
2023/03/03 03:35:54;;;;;;;27.07;16.27;;;-2.00;99.90;;;;;;5029990;28;20049;-77
2023/03/03 03:38:21;;;;;;;27.37;16.50;;;-2.00;99.90;;;;;;5013190;28;20053;-77
2023/03/03 03:40:47;;;;;;;26.70;16.30;;;-1.60;99.90;;;;;;5028320;28;20045;-78
2023/03/03 03:43:13;;;;;;;27.37;16.07;;;-2.00;99.90;;;;;;5011377;28;20049;-76
2023/03/03 03:45:41;;;;;;;26.73;15.90;;;-2.00;99.90;;;;;;5029792;28;20049;-77
2023/03/03 03:48:07;;;;;;;24.30;15.13;;;-2.10;99.90;;;;;;5013249;28;20042;-77
2023/03/03 03:50:33;;;;;;;25.80;15.90;;;-2.20;99.90;;;;;;5021927;28;20045;-77
2023/03/03 03:52:58;;;;;;;25.03;14.60;;;-2.10;99.90;;;;;;5009180;28;20123;-77
2023/03/03 03:55:24;;;;;;;23.60;15.17;;;-2.10;99.90;;;;;;5010252;28;20054;-78
2023/03/03 03:57:50;;;;;;;24.70;15.00;;;-2.10;99.90;;;;;;4995683;28;20049;-78
2023/03/03 04:00:16;;;;;;;24.77;15.33;;;-2.30;99.90;;;;;;5009491;28;20454;-77
2023/03/03 04:02:42;;;;;;;26.50;15.20;;;-2.30;99.90;;;;;;5022065;28;20056;-77
2023/03/03 04:05:08;;;;;;;24.73;14.67;;;-2.20;99.90;;;;;;5029218;28;20480;-78
2023/03/03 04:07:33;;;;;;;29.17;15.73;;;-2.30;99.90;;;;;;5013004;28;20045;-77
2023/03/03 04:09:59;;;;;;;27.33;15.50;;;-2.10;99.90;;;;;;5029686;28;20048;-78
2023/03/03 04:12:25;;;;;;;24.90;15.00;;;-2.20;99.90;;;;;;5028567;28;20140;-77
2023/03/03 04:14:51;;;;;;;25.47;15.03;;;-2.10;99.90;;;;;;5028615;28;20468;-77
2023/03/03 04:17:18;;;;;;;25.83;15.63;;;-2.20;99.90;;;;;;5013925;28;20095;-77
2023/03/03 04:19:45;;;;;;;27.60;15.77;;;-2.30;99.90;;;;;;5028235;28;20500;-77
2023/03/03 04:22:12;;;;;;;25.97;16.17;;;-2.30;99.90;;;;;;5028886;28;20634;-77
2023/03/03 04:24:41;;;;;;;24.20;15.43;;;-2.20;99.90;;;;;;5045182;28;20042;-78
2023/03/03 04:27:10;;;;;;;28.33;16.17;;;-2.20;99.90;;;;;;5011164;28;20103;-77
2023/03/03 04:29:36;;;;;;;25.67;16.00;;;-2.30;99.90;;;;;;5029099;28;20107;-78
2023/03/03 04:32:01;;;;;;;28.97;16.13;;;-2.30;99.90;;;;;;5027675;28;20057;-78
2023/03/03 04:34:27;;;;;;;27.07;16.43;;;-2.30;99.90;;;;;;5025724;28;20496;-77
2023/03/03 04:36:53;;;;;;;25.70;16.47;;;-2.40;99.90;;;;;;5013640;28;20050;-77
2023/03/03 04:39:18;;;;;;;28.50;16.37;;;-2.30;99.90;;;;;;5028608;28;20063;-77
2023/03/03 04:41:44;;;;;;;25.07;15.33;;;-2.30;99.90;;;;;;5029028;28;20049;-77
2023/03/03 04:44:10;;;;;;;29.70;14.93;;;-2.40;99.90;;;;;;5027782;28;20060;-77
2023/03/03 04:46:35;;;;;;;25.97;15.63;;;-2.40;99.90;;;;;;5015786;28;20802;-77
2023/03/03 04:49:02;;;;;;;24.43;15.27;;;-2.30;99.90;;;;;;5011022;28;20389;-77
2023/03/03 04:51:28;;;;;;;22.27;14.67;;;-2.40;99.90;;;;;;5011223;28;20050;-77
2023/03/03 04:53:54;;;;;;;23.07;14.67;;;-2.50;99.90;;;;;;5025485;28;20060;-77
2023/03/03 04:56:20;;;;;;;23.63;14.47;;;-2.50;99.90;;;;;;5016089;28;20456;-77
2023/03/03 04:58:45;;;;;;;27.07;14.67;;;-2.30;99.90;;;;;;5055086;28;20058;-77
2023/03/03 05:01:14;;;;;;;24.27;14.93;;;-2.40;99.90;;;;;;5027852;28;20376;-79
2023/03/03 05:03:40;;;;;;;22.30;13.73;;;-2.50;99.90;;;;;;5032186;28;20053;-77
2023/03/03 05:06:06;;;;;;;23.73;14.10;;;-2.30;99.90;;;;;;5027441;28;20385;-78
2023/03/03 05:08:32;;;;;;;23.47;14.40;;;-2.50;99.90;;;;;;5022463;28;20049;-77
2023/03/03 05:11:01;;;;;;;27.30;15.03;;;-2.40;99.90;;;;;;5031362;28;20128;-77
2023/03/03 05:13:27;;;;;;;23.73;14.90;;;-2.40;99.90;;;;;;5028872;28;20053;-77
2023/03/03 05:15:54;;;;;;;24.63;15.10;;;-2.50;99.90;;;;;;5013292;28;20054;-77
2023/03/03 05:18:24;;;;;;;26.43;15.07;;;-2.40;99.90;;;;;;4996675;28;20460;-77
2023/03/03 05:20:51;;;;;;;25.13;14.60;;;-2.40;99.90;;;;;;5012631;28;20121;-77
2023/03/03 05:23:17;;;;;;;23.83;14.67;;;-2.40;99.90;;;;;;5027183;28;20462;-77
2023/03/03 05:25:44;;;;;;;25.10;14.63;;;-2.40;99.90;;;;;;5031088;28;20099;-77
2023/03/03 05:28:10;;;;;;;24.83;14.87;;;-2.40;99.90;;;;;;5015039;28;20137;-77
2023/03/03 05:30:36;;;;;;;26.17;14.50;;;-2.50;99.90;;;;;;5032717;28;20100;-77
2023/03/03 05:33:03;;;;;;;25.77;14.00;;;-2.40;99.90;;;;;;5013708;28;20045;-77
2023/03/03 05:35:28;;;;;;;23.80;14.43;;;-2.50;99.90;;;;;;5018825;28;20042;-77
2023/03/03 05:37:54;;;;;;;24.30;13.43;;;-2.50;99.90;;;;;;5013781;28;20056;-77
2023/03/03 05:40:20;;;;;;;27.53;14.30;;;-2.40;99.90;;;;;;5029665;28;20116;-76
2023/03/03 05:42:46;;;;;;;28.87;13.87;;;-2.50;99.90;;;;;;5029108;28;20080;-77
2023/03/03 05:45:12;;;;;;;22.70;13.87;;;-2.50;99.90;;;;;;5032022;28;20400;-77
2023/03/03 05:47:38;;;;;;;22.87;13.13;;;-2.40;99.90;;;;;;5015340;28;20438;-77
2023/03/03 05:50:04;;;;;;;25.30;13.53;;;-2.40;99.90;;;;;;5028368;28;20543;-77
2023/03/03 05:52:30;;;;;;;23.00;13.77;;;-2.30;99.90;;;;;;5026803;28;20526;-77
2023/03/03 05:54:56;;;;;;;25.33;13.93;;;-2.40;99.90;;;;;;5028855;28;20053;-77
2023/03/03 05:57:22;;;;;;;25.93;13.07;;;-2.40;99.90;;;;;;5015666;28;20451;-77
2023/03/03 05:59:48;;;;;;;26.23;14.20;;;-2.40;99.90;;;;;;5029945;28;20050;-77
2023/03/03 06:02:13;;;;;;;24.83;13.57;;;-2.30;99.90;;;;;;5030476;28;20053;-77
2023/03/03 06:04:39;;;;;;;23.67;13.47;;;-2.40;99.90;;;;;;5030869;28;20069;-77
2023/03/03 06:07:05;;;;;;;27.83;13.93;;;-2.30;99.90;;;;;;5014108;28;20042;-78
2023/03/03 06:09:32;;;;;;;23.07;13.87;;;-2.40;99.90;;;;;;5031067;28;20395;-77
2023/03/03 06:11:58;;;;;;;26.07;14.47;;;-2.30;99.90;;;;;;5014639;28;20107;-77
2023/03/03 06:14:23;;;;;;;25.53;14.33;;;-2.20;99.90;;;;;;5024711;28;20484;-77
2023/03/03 06:16:49;;;;;;;24.87;14.00;;;-2.30;99.90;;;;;;5006642;28;20046;-77
2023/03/03 06:19:15;;;;;;;22.50;12.97;;;-2.20;99.90;;;;;;5012161;28;20078;-77
2023/03/03 06:21:41;;;;;;;22.50;12.80;;;-2.20;99.90;;;;;;5030947;28;20077;-77
2023/03/03 06:24:07;;;;;;;20.30;12.83;;;-2.20;99.90;;;;;;5029612;28;20053;-77
2023/03/03 06:26:33;;;;;;;19.93;12.67;;;-2.30;99.90;;;;;;5003862;28;20053;-77
2023/03/03 06:29:00;;;;;;;22.63;11.93;;;-2.20;99.90;;;;;;5004474;28;20057;-77
2023/03/03 06:31:26;;;;;;;20.00;11.30;;;-2.10;99.90;;;;;;5039274;28;20052;-77
2023/03/03 06:33:52;;;;;;;18.70;11.07;;;-2.10;99.90;;;;;;5006699;28;20488;-77
2023/03/03 06:36:18;;;;;;;23.97;12.70;;;-2.20;99.90;;;;;;5006554;28;20128;-77
2023/03/03 06:38:44;;;;;;;21.43;11.17;;;-2.10;99.90;;;;;;5025194;28;20124;-78
2023/03/03 06:41:10;;;;;;;24.33;12.23;;;-1.90;99.90;;;;;;5030306;28;20033;-78
2023/03/03 06:43:37;;;;;;;23.87;11.60;;;-1.90;99.90;;;;;;5028753;28;20128;-78
2023/03/03 06:46:04;;;;;;;30.00;14.43;;;-1.80;99.90;;;;;;5028887;28;20063;-77
2023/03/03 06:48:31;;;;;;;25.77;12.33;;;-1.70;99.90;;;;;;5015984;28;20037;-80
2023/03/03 06:51:00;;;;;;;22.13;11.87;;;-1.80;99.90;;;;;;5011675;28;20129;-77
2023/03/03 06:53:26;;;;;;;19.10;11.83;;;-1.80;99.90;;;;;;5015047;28;20050;-77
2023/03/03 06:55:53;;;;;;;21.57;11.20;;;-1.90;99.90;;;;;;5042002;28;20085;-77
2023/03/03 06:58:20;;;;;;;17.17;10.07;;;-1.80;99.90;;;;;;4993446;28;20058;-77
2023/03/03 07:00:54;;;;;;;24.93;11.23;;;-1.80;99.90;;;;;;5017321;28;20491;-77
2023/03/03 07:03:24;;;;;;;20.27;10.93;;;-1.70;99.90;;;;;;5021190;28;20112;-78
2023/03/03 07:05:52;;;;;;;19.20;10.57;;;-1.50;99.90;;;;;;5020046;28;20496;-78
2023/03/03 07:08:21;;;;;;;17.27;10.00;;;-1.20;99.90;;;;;;5006846;28;20053;-78
2023/03/03 07:10:48;;;;;;;21.20;10.63;;;-1.20;99.90;;;;;;5023101;28;20079;-78
2023/03/03 07:13:25;;;;;;;19.03;10.53;;;-1.10;99.90;;;;;;5027494;28;20052;-77
2023/03/03 07:15:53;;;;;;;20.13;9.57;;;-0.50;99.90;;;;;;5008860;28;20396;-78
2023/03/03 07:18:24;;;;;;;17.33;9.83;;;-0.90;99.90;;;;;;5010080;28;20049;-78
2023/03/03 07:20:50;;;;;;;18.63;9.97;;;-0.80;99.90;;;;;;5026801;28;20045;-78
2023/03/03 07:23:25;;;;;;;20.30;10.07;;;-0.60;99.90;;;;;;5025176;28;20050;-78
2023/03/03 07:25:51;;;;;;;17.13;9.13;;;-0.60;99.90;;;;;;5026378;28;20060;-78
2023/03/03 07:28:24;;;;;;;17.33;9.57;;;0.10;99.90;;;;;;5009877;28;20103;-78
2023/03/03 07:30:52;;;;;;;18.27;8.90;;;-0.50;99.90;;;;;;5026743;28;20089;-78
2023/03/03 07:33:30;;;;;;;20.57;9.00;;;-0.40;99.90;;;;;;5025009;28;20052;-78
2023/03/03 07:35:58;;;;;;;21.83;9.07;;;-0.30;99.90;;;;;;5026636;28;20045;-78
2023/03/03 07:38:36;;;;;;;16.47;9.07;;;-0.30;99.90;;;;;;5010632;28;20095;-78
2023/03/03 07:41:04;;;;;;;15.53;9.30;;;-0.30;99.90;;;;;;5015931;28;20489;-78
2023/03/03 07:43:37;;;;;;;17.63;9.20;;;-0.20;99.90;;;;;;5010774;28;20053;-78
2023/03/03 07:46:09;;;;;;;13.77;8.30;;;-0.30;99.90;;;;;;5029337;28;20057;-78
2023/03/03 07:48:35;;;;;;;;;;;-0.20;99.90;;;;;;5020735;28;20506;-78
2023/03/03 07:51:33;;;;;;;19.37;9.83;;;-0.10;99.90;;;;;;5018714;28;20292;-78
2023/03/03 07:54:42;;;;;;;22.53;10.03;;;0.00;99.90;;;;;;5028129;28;20132;-78
2023/03/03 07:57:19;;;;;;;18.57;9.63;;;0.00;99.90;;;;;;5009190;28;20049;-77
2023/03/03 07:59:50;;;;;;;19.97;10.30;;;0.20;99.90;;;;;;5028736;28;20052;-78
2023/03/03 08:02:54;;;;;;;16.13;10.40;;;0.20;99.90;;;;;;5026634;28;20057;-78
2023/03/03 08:05:42;;;;;;;17.37;9.97;;;0.20;99.90;;;;;;4986808;28;20177;-78
2023/03/03 08:08:32;;;;;;;20.53;10.03;;;0.40;99.90;;;;;;5009965;28;20053;-78
2023/03/03 08:10:59;;;;;;;18.40;9.40;;;0.40;99.90;;;;;;5027559;28;20092;-78
2023/03/03 08:13:38;;;;;;;19.87;10.23;;;1.00;99.90;;;;;;5019510;28;20411;-78
2023/03/03 08:16:10;;;;;;;19.60;10.80;;;1.10;99.90;;;;;;5018134;28;20053;-79
2023/03/03 08:18:48;;;;;;;23.00;10.43;;;0.60;99.90;;;;;;5007080;28;20144;-78
2023/03/03 08:21:15;;;;;;;20.73;10.07;;;0.70;99.90;;;;;;5017767;28;20176;-78
2023/03/03 08:23:41;;;;;;;21.47;10.67;;;1.00;99.90;;;;;;5015385;28;20057;-78
2023/03/03 08:26:08;;;;;;;21.03;10.40;;;0.90;99.90;;;;;;5011197;28;20128;-80
2023/03/03 08:28:34;;;;;;;19.70;10.03;;;1.00;99.90;;;;;;5006102;28;20130;-78
2023/03/03 08:31:00;;;;;;;22.93;10.40;;;1.10;99.90;;;;;;5017244;28;20056;-78
2023/03/03 08:33:26;;;;;;;17.83;10.17;;;1.10;99.90;;;;;;5015728;28;20053;-79
2023/03/03 08:35:51;;;;;;;22.07;10.77;;;1.30;99.90;;;;;;5016317;28;20053;-79
2023/03/03 08:38:19;;;;;;;18.00;9.73;;;1.30;99.90;;;;;;5004422;28;20488;-78
2023/03/03 08:40:46;;;;;;;18.23;9.80;;;1.40;99.90;;;;;;5020893;28;20046;-79
2023/03/03 08:43:16;;;;;;;21.40;10.40;;;1.50;99.90;;;;;;5019450;28;20068;-79
2023/03/03 08:45:44;;;;;;;19.30;10.07;;;1.60;99.90;;;;;;5053616;28;20057;-79
2023/03/03 08:48:10;;;;;;;20.67;9.90;;;1.70;99.90;;;;;;5003966;28;20053;-78
2023/03/03 08:50:37;;;;;;;16.10;9.53;;;2.70;99.90;;;;;;5018354;28;20049;-79
2023/03/03 08:53:03;;;;;;;19.27;10.27;;;2.20;99.90;;;;;;5019932;28;20060;-78
2023/03/03 08:55:29;;;;;;;24.33;11.07;;;2.20;99.90;;;;;;5020909;28;20053;-79
2023/03/03 08:57:55;;;;;;;18.63;9.40;;;2.40;99.90;;;;;;5004621;28;20057;-78
2023/03/03 09:00:21;;;;;;;18.10;9.17;;;2.40;99.90;;;;;;5020028;28;20049;-78
2023/03/03 09:02:49;;;;;;;17.27;8.83;;;2.50;99.90;;;;;;5018860;28;20061;-80
2023/03/03 09:05:16;;;;;;;17.37;9.20;;;2.70;99.90;;;;;;5020615;28;20052;-79
2023/03/03 09:07:43;;;;;;;21.47;8.50;;;2.80;99.90;;;;;;5003590;28;20060;-79
2023/03/03 09:10:11;;;;;;;14.93;8.30;;;2.70;99.90;;;;;;5019322;28;20053;-79
2023/03/03 09:12:40;;;;;;;15.57;8.13;;;3.00;99.90;;;;;;5018751;28;20055;-79
2023/03/03 09:15:24;;;;;;;13.17;7.43;;;3.10;99.90;;;;;;5020794;28;20057;-79
2023/03/03 09:17:50;;;;;;;15.97;6.70;;;3.40;99.90;;;;;;5003868;28;20057;-79
2023/03/03 09:20:32;;;;;;;11.33;6.63;;;3.40;99.90;;;;;;5020346;28;20119;-78
2023/03/03 09:23:15;;;;;;;10.50;5.90;;;3.50;99.90;;;;;;5017096;28;20140;-79
2023/03/03 09:25:41;;;;;;;16.23;6.00;;;3.60;99.90;;;;;;5020406;28;20180;-79
2023/03/03 09:28:23;;;;;;;13.10;5.77;;;3.60;99.90;;;;;;5003871;28;20049;-79
2023/03/03 09:30:49;;;;;;;10.87;5.40;;;3.70;99.90;;;;;;5020607;28;20045;-79
2023/03/03 09:33:21;;;;;;;9.80;5.83;;;3.80;99.90;;;;;;5018767;28;20053;-79
2023/03/03 09:35:50;;;;;;;11.35;5.82;;;3.90;99.90;;;;;;5019985;28;20057;-79
2023/03/03 09:38:39;;;;;;;10.43;5.00;;;3.90;99.90;;;;;;5002554;28;20065;-79
2023/03/03 09:41:11;;;;;;;12.63;5.00;;;3.90;99.90;;;;;;5018835;28;20114;-80
2023/03/03 09:44:06;;;;;;;7.47;4.40;;;4.00;99.90;;;;;;5018620;28;20059;-79
2023/03/03 09:46:50;;;;;;;10.57;5.17;;;4.10;99.90;;;;;;5006059;28;20427;-79
2023/03/03 09:49:33;;;;;;;9.70;4.90;;;4.30;99.90;;;;;;5017565;28;20446;-78
2023/03/03 09:52:15;;;;;;;10.80;4.53;;;4.40;99.90;;;;;;5019820;28;20061;-79
2023/03/03 09:54:41;;;;;;;9.07;4.13;;;4.50;99.90;;;;;;5037541;28;20189;-78
2023/03/03 09:57:29;;;;;;;8.43;4.23;;;4.70;99.90;;;;;;4989481;28;20930;-78
2023/03/03 10:00:23;;;;;;;8.60;3.40;;;4.80;99.90;;;;;;4164846;28;10000528;-79
2023/03/03 10:03:01;;;;;;;8.40;3.63;;;4.90;99.90;;;;;;5012210;28;20064;-78
2023/03/03 10:05:48;;;;;;;5.47;2.63;;;5.10;99.90;;;;;;5078350;28;20521;-78
2023/03/03 10:08:35;;;;;;;8.00;2.40;;;5.30;99.90;;;;;;5021615;28;20056;-79
2023/03/03 10:11:18;;;;;;;6.50;2.30;;;5.50;99.90;;;;;;5038375;28;20551;-78
2023/03/03 10:14:16;;;;;;;6.13;1.73;;;5.70;99.90;;;;;;5031727;28;20064;-79
2023/03/03 10:17:14;;;;;;;3.60;1.30;;;6.00;99.90;;;;;;4992201;28;20060;-80
2023/03/03 10:19:47;;;;;;;3.70;0.87;;;6.20;99.90;;;;;;5014485;28;20057;-81
2023/03/03 10:22:34;;;;;;;5.67;1.20;;;6.20;99.90;;;;;;5015718;28;20234;-79
2023/03/03 10:25:35;;;;;;;3.57;1.07;;;6.40;99.90;;;;;;5017873;28;20140;-79
2023/03/03 10:28:19;;;;;;;3.53;0.70;;;6.60;99.90;;;;;;4998414;28;20057;-80
2023/03/03 10:31:08;;;;;;;5.77;0.70;;;6.70;99.90;;;;;;5017803;28;20091;-79
2023/03/03 10:33:47;;;;;;;5.00;0.80;;;6.70;99.90;;;;;;5016893;28;20084;-80
2023/03/03 10:36:48;;;;;;;4.47;0.90;;;6.90;99.90;;;;;;5008126;28;20524;-78
2023/03/03 10:39:40;;;;;;;2.97;0.83;;;7.00;99.90;;;;;;5010697;28;20180;-79
2023/03/03 10:42:23;;;;;;;5.43;0.57;;;7.00;99.90;;;;;;5048495;28;20152;-80
2023/03/03 10:45:16;;;;;;;4.43;0.80;;;6.80;99.90;;;;;;5016242;28;20070;-77
2023/03/03 10:48:03;;;;;;;1.97;0.60;;;6.80;99.90;;;;;;5000710;28;20064;-78
2023/03/03 10:51:07;;;;;;;4.77;0.73;;;6.70;99.90;;;;;;5015218;28;20057;-78
2023/03/03 10:54:06;;;;;;;3.77;0.73;;;6.60;99.90;;;;;;5016252;28;20581;-78
2023/03/03 10:57:00;;;;;;;6.23;0.80;;;6.70;99.90;;;;;;5001231;28;20532;-77
2023/03/03 10:59:59;;;;;;;3.10;0.50;;;6.60;99.90;;;;;;5013387;28;20054;-78
2023/03/03 11:02:45;;;;;;;4.80;0.53;;;6.60;99.90;;;;;;5014403;28;21234;-77
2023/03/03 11:05:21;;;;;;;2.67;0.60;;;6.60;99.90;;;;;;5016512;28;20431;-79
2023/03/03 11:07:53;;;;;;;4.20;0.77;;;6.60;99.90;;;;;;4999417;28;20053;-79
2023/03/03 11:10:31;;;;;;;;;;;6.60;99.90;;;;;;5017239;28;20050;-78
2023/03/03 11:13:12;;;;;;;2.87;0.70;;;7.20;99.90;;;;;;5015149;28;19939;-78
2023/03/03 11:15:53;;;;;;;2.58;0.60;;;7.80;99.90;;;;;;5016726;28;20474;-78
2023/03/03 11:18:53;;;;;;;2.28;0.55;;;8.80;99.90;;;;;;5000238;28;20057;-78
2023/03/03 11:21:46;;;;;;;6.10;0.70;;;8.40;99.90;;;;;;5015870;28;20067;-78
2023/03/03 11:24:36;;;;;;;5.87;0.67;;;8.00;99.90;;;;;;5016005;28;20059;-80
2023/03/03 11:27:28;;;;;;;6.00;1.07;;;8.10;99.90;;;;;;5000775;28;20066;-73
2023/03/03 11:30:22;;;;;;;5.00;0.82;;;8.10;99.90;;;;;;5014708;28;20060;-79
2023/03/03 11:33:11;;;;;;;6.13;0.90;;;7.70;99.90;;;;;;5003675;28;20084;-77
2023/03/03 11:36:09;;;;;;;3.13;0.47;;;7.60;99.90;;;;;;5016750;28;20494;-78
2023/03/03 11:38:47;;;;;;;4.83;0.90;;;7.70;99.90;;;;;;5003058;28;20053;-78
2023/03/03 11:41:26;;;;;;;5.83;1.23;;;7.80;99.90;;;;;;5013846;28;20148;-80
2023/03/03 11:43:57;;;;;;;6.03;0.90;;;7.90;99.90;;;;;;5009437;28;20529;-78
2023/03/03 11:46:31;;;;;;;5.50;0.88;;;7.70;99.90;;;;;;4998147;28;20057;-78
2023/03/03 11:49:22;;;;;;;6.70;1.00;;;7.80;99.90;;;;;;5007042;28;20594;-77
2023/03/03 11:52:10;;;;;;;6.60;1.20;;;7.80;99.90;;;;;;5010477;28;20161;-77
2023/03/03 11:54:55;;;;;;;10.47;1.43;;;7.70;99.90;;;;;;5008920;28;20522;-78
2023/03/03 11:57:25;;;;;;;8.13;1.20;;;7.70;99.90;;;;;;5024220;28;20061;-78
2023/03/03 12:00:18;;;;;;;8.90;0.80;;;7.80;99.90;;;;;;5011276;28;20072;-78
2023/03/03 12:02:50;;;;;;;7.07;1.10;;;7.90;99.90;;;;;;5010023;28;20069;-79
2023/03/03 12:05:53;;;;;;;14.87;1.73;;;8.10;99.90;;;;;;5011623;28;20635;-78
2023/03/03 12:08:43;;;;;;;7.83;1.27;;;8.60;99.90;;;;;;4996612;28;20144;-79
2023/03/03 12:11:16;;;;;;;8.90;1.60;;;8.50;99.90;;;;;;5014067;28;20128;-78
2023/03/03 12:14:07;;;;;;;9.20;1.40;;;8.60;99.90;;;;;;5017421;28;20053;-78
2023/03/03 12:16:42;;;;;;;9.18;1.55;;;7.90;99.90;;;;;;4985290;28;21129;-78
2023/03/03 12:19:22;;;;;;;8.60;1.60;;;8.10;99.90;;;;;;5016591;28;20061;-80
2023/03/03 12:22:25;;;;;;;10.53;1.50;;;8.20;99.90;;;;;;5017071;28;20677;-78
2023/03/03 12:25:21;;;;;;;8.57;1.70;;;8.10;99.90;;;;;;5014542;28;20057;-78
2023/03/03 12:28:17;;;;;;;7.83;1.50;;;8.00;99.90;;;;;;4992594;28;20065;-78
2023/03/03 12:31:04;;;;;;;9.23;1.87;;;8.10;99.90;;;;;;5016521;28;20050;-77
2023/03/03 12:33:52;;;;;;;13.13;2.00;;;8.10;99.90;;;;;;5015631;28;20412;-78
2023/03/03 12:36:21;;;;;;;11.53;2.27;;;7.90;99.90;;;;;;5005950;28;20124;-77
2023/03/03 12:39:09;;;;;;;11.20;1.90;;;7.80;99.90;;;;;;5013471;28;20061;-78
2023/03/03 12:41:39;;;;;;;10.63;2.00;;;7.70;99.90;;;;;;5016655;28;21638;-77
2023/03/03 12:44:17;;;;;;;11.83;1.83;;;7.80;99.90;;;;;;5016802;28;20086;-78
2023/03/03 12:46:58;;;;;;;10.87;2.07;;;8.10;99.90;;;;;;5002035;28;21380;-79
2023/03/03 12:49:27;;;;;;;;;;;8.70;99.90;;;;;;5046752;28;20045;-79
2023/03/03 12:52:31;;;;;;;7.67;1.67;;;8.60;99.90;;;;;;5016663;28;20366;-78
2023/03/03 12:55:03;;;;;;;9.30;2.00;;;8.40;99.90;;;;;;4996114;28;20054;-80
2023/03/03 12:58:03;;;;;;;10.00;2.00;;;8.50;99.90;;;;;;4998613;28;20285;-78
2023/03/03 13:00:52;;;;;;;13.57;2.27;;;8.10;99.90;;;;;;5016121;28;20080;-78
2023/03/03 13:03:30;;;;;;;15.80;2.47;;;8.10;99.90;;;;;;5015009;28;20061;-77
2023/03/03 13:06:31;;;;;;;12.90;2.50;;;8.20;99.90;;;;;;5016124;28;20045;-77
2023/03/03 13:09:05;;;;;;;16.17;3.40;;;8.30;99.90;;;;;;5013939;28;20049;-79